Terminal Aerodrome Forecast
Issued by NWS

Home | Current Version | Previous Version | Text Only | Print | Product List | Glossary On
Versions: 1 2 3 4 5 6 7 8 9 10 11 12 13 14 15 16 17 18 19 20 21 22 23 24 25 26 27
000
FTPQ31 PGUM 020539
TAFGUM
TAF

TAF
PGSN 020539Z 0206/0306 33030G45KT 5SM SHRA VCTS SCT006 BKN020CB
      OVC040
     FM021000 VRB65G80KT 1SM +TSRA BKN006CB OVC015
     FM021400 18045G65KT 3SM +SHRA VCTS SCT006CB BKN015 OVC040
     FM021600 18020G30KT 5SM SHRA VCTS SCT006 BKN020CB=

USA.gov is the U.S. government's official web portal to all federal, state and local government web resources and services.